Main page
Satellite images 15-day forecastsClimateMarine weather Cyclones Lightning AirportsFAQ Newsletter About
Weather : Europe Africa North America South America Asia Australia-Oceania Others
Languages Contact

Baia Mare, Romania

latitude: 47-40N, longitude: 023-35E, elevation: 218 m


METAR: LRBM 190900Z 11014KT 080V140 9999 SCT036 19/03 Q1006
short-TAF: LRBM 190800Z 1909/1918 13012KT 9999 SCT030
long-TAF: out of date (31836 hours)

Time: 12:24 (09:24 UTC)

Current weather observation

The report was made 24 minutes ago, at 09:00 UTC  
Wind 14 kt from east/southeast, varying between east and southeast
Temperature 19°C
Humidity 34%
Pressure 1006 hPa
Visibility 10 km or more
Scattered clouds at a height of 3600 ft

Change units

Forecast

The report was made 53 minutes ago, at 08:31 UTC  
Forecast valid from 19 at 09 UTC to 19 at 18 UTC
Wind 12 kt from southeast
Visibility 10 km or more
Scattered clouds at a height of 3000 ft
The information on this site is subject to a disclaimer
Weather : Europe Africa North America South America Asia Australia-Oceania Others
Satellite images 15-day forecastsClimateMarine weather Cyclones Lightning AirportsFAQ Languages Contact Newsletter About